EGPF - Glasgow Airport
Distance from station: E 5mi, 14km
Updated: 10/19/2017 9:50pm
Shallow fog, Partly cloudy
Shallow fog, Partly cloudy
 Wind from varies
Wind: varies 1 mph , 2 km/h
Temperature: 52°F , 11°C
Dew Point: 52°F , 11°C
Humidity: 100%
Barometer: 29.41 inHg , 996 hPa
Summary: Shallow Fog
Clouds: Partly Cloudy
Visibility: 2 miles , 3 km
Cloud details: Partly Cloudy 1500 ft
2017/10/20 04:50 EGPF 200450Z VRB01KT 3000 R23/0600 MIFG SCT015 11/11 Q0996